.
WxDataArchive / Data Records for 2006-12-14
2006-12-13 December 2006 2006-12-15

Data Records for Thursday, 14 December 2006

Time	Temp	Chill	HIndex	Humid	Dewpt	 Wind 	HiWind	WindDir	Rain 	Barom 
-----	----	-----	------	-----	-----	------	------	-------	-----	----- 
00:00	41.3	41.3	41.3	84	36.8	1	4	248	0.00	29.920 
00:05	41.3	41.3	41.3	84	36.8	1	3	248	0.00	29.920 
00:10	41.3	41.3	41.3	84	36.8	1	4	248	0.00	29.920 
00:15	41.3	41.3	41.3	84	36.8	1	3	248	0.00	29.914 
00:20	41.3	41.3	41.3	84	36.8	1	3	248	0.00	29.914 
00:25	41.5	41.5	41.5	84	37.0	2	6	248	0.00	29.914 
00:30	41.5	41.5	41.5	84	37.0	1	4	248	0.00	29.912 
00:35	41.5	41.5	41.5	84	37.0	2	6	248	0.00	29.912 
00:40	41.6	41.6	41.6	84	37.1	2	7	248	0.00	29.912 
00:45	41.6	41.6	41.6	83	36.8	2	5	248	0.00	29.905 
00:50	41.6	41.6	41.6	83	36.8	2	4	248	0.00	29.905 
00:55	41.6	41.6	41.6	83	36.8	2	5	248	0.00	29.905 
01:00	41.6	41.6	41.6	84	37.1	2	4	248	0.00	29.899 
01:05	41.6	41.6	41.6	84	37.1	1	5	248	0.00	29.899 
01:10	41.6	41.6	41.6	84	37.1	2	4	248	0.00	29.899 
01:15	41.5	41.5	41.5	84	37.0	1	3	248	0.00	29.895 
01:20	41.5	41.5	41.5	84	37.0	2	6	248	0.00	29.895 
01:25	41.3	41.3	41.3	84	36.8	2	4	248	0.00	29.895 
01:30	41.2	41.2	41.2	84	36.7	1	4	248	0.00	29.892 
01:35	41.2	41.2	41.2	84	36.7	1	4	248	0.00	29.892 
01:40	41.2	41.2	41.2	84	36.7	2	5	248	0.00	29.892 
01:45	41.2	41.2	41.2	84	36.7	1	4	248	0.00	29.889 
01:50	41.2	41.2	41.2	84	36.7	2	5	248	0.00	29.889 
01:55	41.2	41.2	41.2	84	36.7	2	6	248	0.00	29.889 
02:00	41.2	41.2	41.2	84	36.7	2	5	248	0.00	29.886 
02:05	41.2	41.2	41.2	84	36.7	1	4	248	0.00	29.886 
02:10	41.1	41.1	41.1	84	36.6	2	4	248	0.00	29.886 
02:15	41.1	41.1	41.1	84	36.6	2	5	248	0.00	29.884 
02:20	41.2	41.2	41.2	84	36.7	1	6	248	0.00	29.884 
02:25	41.2	41.2	41.2	84	36.7	2	5	248	0.00	29.884 
02:30	41.2	41.2	41.2	84	36.7	1	3	248	0.00	29.884 
02:35	41.2	41.2	41.2	84	36.7	2	4	248	0.00	29.884 
02:40	41.2	41.2	41.2	84	36.7	1	5	225	0.00	29.884 
02:45	41.2	41.2	41.2	84	36.7	1	4	225	0.00	29.883 
02:50	41.1	41.1	41.1	84	36.6	1	4	248	0.00	29.883 
02:55	41.1	41.1	41.1	84	36.6	1	5	248	0.00	29.883 
03:00	41.1	41.1	41.1	84	36.6	1	5	248	0.00	29.885 
03:05	41.1	41.1	41.1	84	36.6	1	3	248	0.00	29.885 
03:10	41.1	41.1	41.1	84	36.6	1	5	248	0.00	29.885 
03:15	41.1	41.1	41.1	84	36.6	1	4	248	0.00	29.885 
03:20	41.1	41.1	41.1	84	36.6	1	3	248	0.00	29.885 
03:25	41.2	41.2	41.2	84	36.7	1	4	248	0.00	29.885 
03:30	41.2	41.2	41.2	84	36.7	1	4	248	0.00	29.884 
03:35	41.3	41.3	41.3	84	36.8	2	5	248	0.00	29.884 
03:40	41.3	41.3	41.3	84	36.8	1	9	248	0.00	29.884 
03:45	41.2	41.2	41.2	84	36.7	1	4	248	0.00	29.877 
03:50	41.2	41.2	41.2	84	36.7	1	3	248	0.00	29.877 
03:55	41.1	41.1	41.1	84	36.6	0	2	248	0.00	29.877 
04:00	40.9	40.9	40.9	85	36.7	1	4	270	0.00	29.867 
04:05	40.9	40.9	40.9	85	36.7	1	4	248	0.00	29.867 
04:10	41.1	41.1	41.1	85	36.9	1	5	248	0.00	29.867 
04:15	41.2	41.2	41.2	84	36.7	1	5	225	0.00	29.862 
04:20	41.2	41.2	41.2	85	37.0	1	5	225	0.00	29.862 
04:25	41.2	41.2	41.2	85	37.0	1	4	248	0.00	29.862 
04:30	41.3	41.3	41.3	84	36.8	1	6	248	0.00	29.852 
04:35	41.3	41.3	41.3	84	36.8	1	5	248	0.00	29.852 
04:40	41.3	41.3	41.3	84	36.8	1	4	248	0.00	29.852 
04:45	41.5	41.5	41.5	84	37.0	1	5	248	0.00	29.849 
04:50	41.5	41.5	41.5	84	37.0	1	3	248	0.00	29.849 
04:55	41.5	41.5	41.5	84	37.0	1	3	248	0.00	29.849 
05:00	41.3	41.3	41.3	84	36.8	0	2	248	0.00	29.847 
05:05	41.2	41.2	41.2	84	36.7	0	2	248	0.00	29.847 
05:10	41.1	41.1	41.1	84	36.6	1	3	270	0.00	29.847 
05:15	41.1	41.1	41.1	84	36.6	1	3	248	0.00	29.845 
05:20	41.1	41.1	41.1	85	36.9	1	6	248	0.00	29.845 
05:25	41.1	41.1	41.1	84	36.6	1	6	248	0.00	29.845 
05:30	41.2	41.2	41.2	84	36.7	1	5	248	0.00	29.835 
05:35	41.1	41.1	41.1	84	36.6	1	4	248	0.00	29.835 
05:40	41.1	41.1	41.1	84	36.6	1	6	248	0.00	29.835 
05:45	41.2	41.2	41.2	84	36.7	1	4	248	0.00	29.835 
05:50	41.2	41.2	41.2	84	36.7	1	4	248	0.00	29.835 
05:55	41.2	41.2	41.2	84	36.7	1	3	248	0.00	29.835 
06:00	41.2	41.2	41.2	84	36.7	1	3	248	0.00	29.830 
06:05	41.3	41.3	41.3	84	36.8	1	3	248	0.00	29.830 
06:10	41.3	41.3	41.3	84	36.8	1	4	270	0.00	29.830 
06:15	41.3	41.3	41.3	84	36.8	1	4	248	0.00	29.829 
06:20	41.3	41.3	41.3	84	36.8	1	5	248	0.00	29.829 
06:25	41.5	41.5	41.5	84	37.0	2	4	248	0.00	29.829 
06:30	41.6	41.6	41.6	83	36.8	1	4	248	0.00	29.828 
06:35	41.8	41.8	41.8	83	37.0	1	5	248	0.00	29.828 
06:40	41.9	41.9	41.9	82	36.8	1	5	248	0.00	29.828 
06:45	41.9	41.9	41.9	82	36.8	2	6	248	0.00	29.825 
06:50	42.1	42.1	42.1	82	37.0	2	4	248	0.00	29.825 
06:55	42.2	42.2	42.2	81	36.8	2	5	248	0.00	29.825 
07:00	42.3	42.3	42.3	81	36.9	2	5	248	0.00	29.834 
07:05	42.5	42.5	42.5	81	37.1	2	5	248	0.00	29.834 
07:10	42.5	42.5	42.5	80	36.8	2	7	248	0.00	29.834 
07:15	42.5	42.5	42.5	80	36.8	2	7	248	0.00	29.834 
07:20	42.6	42.6	42.6	80	36.9	2	7	248	0.00	29.834 
07:25	42.6	42.6	42.6	80	36.9	2	6	248	0.00	29.834 
07:30	42.6	42.6	42.6	80	36.9	2	6	248	0.00	29.834 
07:35	42.6	42.6	42.6	80	36.9	2	4	248	0.00	29.834 
07:40	42.6	42.6	42.6	80	36.9	2	7	248	0.00	29.834 
07:45	42.6	42.6	42.6	80	36.9	2	10	248	0.00	29.831 
07:50	42.8	42.8	42.8	79	36.7	2	6	248	0.00	29.831 
07:55	42.6	42.6	42.6	79	36.6	2	6	248	0.00	29.831 
08:00	42.5	42.5	42.5	80	36.8	2	5	248	0.00	29.825 
08:05	42.5	42.5	42.5	80	36.8	2	5	248	0.00	29.825 
08:10	42.5	42.5	42.5	80	36.8	1	5	225	0.00	29.825 
08:15	42.5	42.5	42.5	80	36.8	1	5	248	0.00	29.816 
08:20	42.6	42.6	42.6	80	36.9	2	4	248	0.00	29.816 
08:25	42.8	42.8	42.8	80	37.1	2	6	248	0.00	29.816 
08:30	42.9	42.9	42.9	79	36.8	2	6	248	0.00	29.819 
08:35	43.1	43.1	43.1	79	37.0	2	6	248	0.00	29.819 
08:40	43.2	43.2	43.2	79	37.1	2	6	248	0.00	29.819 
08:45	43.3	43.3	43.3	78	36.9	3	6	248	0.00	29.819 
08:50	43.5	43.5	43.5	78	37.1	3	9	248	0.00	29.819 
08:55	43.8	43.8	43.8	78	37.4	3	9	248	0.00	29.819 
09:00	43.9	43.9	43.9	77	37.2	2	6	248	0.00	29.820 
09:05	43.9	43.9	43.9	77	37.2	2	9	248	0.00	29.820 
09:10	44.1	44.1	44.1	77	37.4	3	9	248	0.00	29.820 
09:15	44.2	44.2	44.2	77	37.5	2	6	248	0.00	29.819 
09:20	44.3	44.3	44.3	77	37.6	3	10	270	0.00	29.819 
09:25	44.6	42.6	44.6	76	37.5	4	12	248	0.00	29.819 
09:30	44.8	44.8	44.8	76	37.7	3	11	248	0.00	29.818 
09:35	44.9	44.9	44.9	75	37.5	3	10	270	0.00	29.818 
09:40	45.1	43.2	45.1	75	37.7	4	11	248	0.00	29.818 
09:45	45.1	43.2	45.1	74	37.3	4	11	248	0.00	29.807 
09:50	45.2	43.3	45.2	74	37.4	4	10	248	0.00	29.807 
09:55	45.4	45.4	45.4	74	37.6	3	8	248	0.00	29.807 
10:00	45.4	45.4	45.4	74	37.6	3	9	248	0.00	29.805 
10:05	45.4	45.4	45.4	74	37.6	3	7	248	0.00	29.805 
10:10	45.5	45.5	45.5	74	37.7	2	6	248	0.00	29.805 
10:15	45.7	45.7	45.7	73	37.5	3	6	248	0.00	29.807 
10:20	45.8	44.0	45.8	73	37.6	4	13	248	0.00	29.807 
10:25	46.0	44.2	46.0	73	37.8	4	8	270	0.00	29.807 
10:30	46.0	46.0	46.0	73	37.8	3	11	248	0.00	29.801 
10:35	46.1	44.4	46.1	73	37.9	4	9	270	0.00	29.801 
10:40	46.2	44.5	46.2	73	38.0	4	10	248	0.00	29.801 
10:45	46.4	46.4	46.4	73	38.2	3	7	248	0.00	29.800 
10:50	46.5	46.5	46.5	73	38.3	2	9	248	0.00	29.800 
10:55	46.7	46.7	46.7	72	38.2	3	10	248	0.00	29.800 
11:00	47.0	47.0	47.0	71	38.1	3	10	248	0.00	29.802 
11:05	47.3	45.8	47.3	70	38.0	4	10	248	0.00	29.802 
11:10	47.4	45.9	47.4	69	37.7	4	11	270	0.00	29.802 
11:15	47.7	45.5	47.7	69	38.0	5	10	248	0.00	29.801 
11:20	47.9	46.4	47.9	69	38.2	4	9	248	0.00	29.801 
11:25	48.0	48.0	48.0	69	38.3	3	6	248	0.00	29.801 
11:30	48.2	46.1	48.2	68	38.1	5	11	248	0.00	29.787 
11:35	48.3	48.3	48.3	69	38.6	3	9	248	0.00	29.787 
11:40	48.3	48.3	48.3	69	38.6	3	8	248	0.00	29.787 
11:45	48.5	47.1	48.5	67	38.0	4	8	248	0.00	29.775 
11:50	48.6	47.3	48.6	67	38.1	4	8	248	0.00	29.775 
11:55	48.8	48.8	48.8	67	38.3	3	7	248	0.00	29.775 
12:00	49.1	49.1	49.1	67	38.6	3	9	248	0.00	29.762 
12:05	49.2	49.2	49.2	66	38.3	3	8	248	0.00	29.762 
12:10	49.4	49.4	49.4	66	38.5	3	10	248	0.00	29.762 
12:15	49.5	48.3	49.5	65	38.2	4	9	248	0.00	29.748 
12:20	49.8	48.6	49.8	65	38.5	4	9	248	0.00	29.748 
12:25	50.1	50.1	50.1	65	38.8	4	9	248	0.00	29.748 
12:30	50.4	50.4	50.4	65	39.1	3	7	248	0.00	29.734 
12:35	50.7	50.7	50.7	64	39.0	3	6	248	0.00	29.734 
12:40	51.0	51.0	51.0	64	39.3	2	6	248	0.00	29.734 
12:45	51.4	51.4	51.4	64	39.6	3	9	248	0.00	29.722 
12:50	52.0	52.0	52.0	63	39.8	3	7	248	0.00	29.722 
12:55	52.5	52.5	52.5	63	40.3	4	10	248	0.00	29.722 
13:00	52.8	52.8	52.8	62	40.1	4	12	248	0.00	29.710 
13:05	53.1	53.1	53.1	61	40.0	4	10	248	0.00	29.710 
13:10	53.3	53.3	53.3	62	40.6	3	7	248	0.00	29.710 
13:15	53.3	53.3	53.3	62	40.6	3	9	248	0.00	29.699 
13:20	53.3	53.3	53.3	60	39.8	4	9	248	0.00	29.699 
13:25	53.5	53.5	53.5	61	40.4	4	10	248	0.00	29.699 
13:30	53.5	53.5	53.5	61	40.4	4	11	248	0.00	29.686 
13:35	53.5	53.5	53.5	61	40.4	2	10	248	0.00	29.686 
13:40	53.3	53.3	53.3	59	39.3	4	11	248	0.00	29.686 
13:45	53.3	53.3	53.3	59	39.3	4	10	248	0.00	29.676 
13:50	53.2	53.2	53.2	60	39.7	4	12	248	0.00	29.676 
13:55	53.1	53.1	53.1	61	40.0	3	7	248	0.00	29.676 
14:00	53.2	53.2	53.2	61	40.1	3	11	270	0.00	29.655 
14:05	53.3	53.3	53.3	60	39.8	3	11	270	0.00	29.655 
14:10	53.6	53.6	53.6	61	40.5	3	8	270	0.00	29.655 
14:15	54.2	54.2	54.2	60	40.6	3	9	270	0.00	29.649 
14:20	54.4	54.4	54.4	58	39.9	4	10	248	0.00	29.649 
14:25	54.5	54.5	54.5	58	40.0	4	12	248	0.00	29.649 
14:30	54.5	54.5	54.5	58	40.0	3	7	248	0.00	29.639 
14:35	54.5	54.5	54.5	58	40.0	3	9	248	0.00	29.639 
14:40	54.4	54.4	54.4	59	40.4	3	10	248	0.00	29.639 
14:45	54.4	54.4	54.4	58	39.9	4	11	248	0.00	29.630 
14:50	54.5	54.5	54.5	58	40.0	3	6	248	0.00	29.630 
14:55	54.7	54.7	54.7	58	40.2	2	7	248	0.00	29.630 
15:00	55.3	55.3	55.3	57	40.3	3	11	270	0.00	29.616 
15:05	55.4	55.4	55.4	55	39.5	3	7	248	0.00	29.616 
15:10	55.3	55.3	55.3	54	38.9	3	10	248	0.00	29.616 
15:15	55.1	55.1	55.1	53	38.3	4	10	270	0.00	29.607 
15:20	55.1	55.1	55.1	54	38.8	4	8	248	0.00	29.607 
15:25	55.1	55.1	55.1	52	37.8	4	11	248	0.00	29.607 
15:30	55.1	55.1	55.1	53	38.3	5	13	270	0.00	29.606 
15:35	55.1	55.1	55.1	53	38.3	4	11	225	0.00	29.606 
15:40	55.1	55.1	55.1	53	38.3	4	9	225	0.00	29.606 
15:45	55.4	55.4	55.4	53	38.6	3	9	248	0.00	29.604 
15:50	55.6	55.6	55.6	53	38.7	3	10	270	0.00	29.604 
15:55	55.4	55.4	55.4	54	39.0	3	12	248	0.00	29.604 
16:00	55.4	55.4	55.4	53	38.6	5	16	270	0.00	29.603 
16:05	55.1	55.1	55.1	54	38.8	3	10	248	0.00	29.603 
16:10	54.8	54.8	54.8	54	38.5	4	12	248	0.00	29.603 
16:15	54.8	54.8	54.8	55	38.9	3	9	248	0.00	29.604 
16:20	54.8	54.8	54.8	55	38.9	3	8	248	0.00	29.604 
16:25	54.7	54.7	54.7	55	38.9	4	11	248	0.00	29.604 
16:30	54.5	54.5	54.5	56	39.1	4	12	248	0.00	29.606 
16:35	54.5	54.5	54.5	56	39.1	5	12	248	0.00	29.606 
16:40	54.4	54.4	54.4	56	39.0	4	10	248	0.00	29.606 
16:45	54.2	54.2	54.2	57	39.3	4	11	248	0.00	29.619 
16:50	54.2	54.2	54.2	57	39.3	6	13	270	0.00	29.619 
16:55	54.1	54.1	54.1	58	39.7	4	11	248	0.00	29.619 
17:00	53.8	53.8	53.8	58	39.4	3	9	248	0.00	29.629 
17:05	53.6	53.6	53.6	58	39.2	4	11	270	0.00	29.629 
17:10	53.5	53.5	53.5	59	39.5	3	7	270	0.00	29.629 
17:15	53.3	53.3	53.3	59	39.3	3	11	248	0.00	29.633 
17:20	53.3	53.3	53.3	59	39.3	4	10	248	0.00	29.633 
17:25	53.3	53.3	53.3	59	39.3	4	9	248	0.00	29.633 
17:30	53.2	53.2	53.2	59	39.2	3	8	248	0.00	29.637 
17:35	52.9	52.9	52.9	60	39.4	2	6	248	0.00	29.637 
17:40	52.8	52.8	52.8	60	39.3	2	6	248	0.00	29.637 
17:45	52.6	52.6	52.6	60	39.1	2	7	248	0.00	29.639 
17:50	52.5	52.5	52.5	61	39.4	2	6	248	0.00	29.639 
17:55	52.3	52.3	52.3	61	39.3	1	4	248	0.00	29.639 
18:00	52.3	52.3	52.3	61	39.3	2	7	248	0.00	29.641 
18:05	52.2	52.2	52.2	61	39.2	2	7	248	0.00	29.641 
18:10	52.2	52.2	52.2	61	39.2	3	6	248	0.00	29.641 
18:15	52.2	52.2	52.2	61	39.2	3	9	248	0.00	29.634 
18:20	52.2	52.2	52.2	61	39.2	4	10	248	0.00	29.634 
18:25	52.2	52.2	52.2	61	39.2	3	7	248	0.00	29.634 
18:30	52.3	52.3	52.3	61	39.3	4	12	248	0.00	29.638 
18:35	52.5	52.5	52.5	61	39.4	4	12	248	0.00	29.638 
18:40	52.5	52.5	52.5	61	39.4	4	9	248	0.00	29.638 
18:45	52.8	52.8	52.8	61	39.7	5	11	248	0.00	29.639 
18:50	52.6	52.6	52.6	62	40.0	4	12	248	0.00	29.639 
18:55	52.8	52.8	52.8	62	40.1	5	10	248	0.00	29.639 
19:00	52.8	52.8	52.8	62	40.1	5	10	270	0.00	29.647 
19:05	52.8	52.8	52.8	62	40.1	4	9	248	0.00	29.647 
19:10	52.6	52.6	52.6	63	40.4	5	12	270	0.00	29.647 
19:15	52.5	52.5	52.5	63	40.3	4	7	248	0.00	29.647 
19:20	52.3	52.3	52.3	64	40.5	4	13	248	0.00	29.647 
19:25	52.5	52.5	52.5	64	40.7	4	11	248	0.00	29.647 
19:30	52.3	52.3	52.3	64	40.5	5	11	270	0.00	29.645 
19:35	52.2	52.2	52.2	65	40.8	4	9	248	0.00	29.645 
19:40	52.0	52.0	52.0	65	40.6	4	10	248	0.00	29.645 
19:45	51.9	51.9	51.9	65	40.5	5	10	248	0.00	29.650 
19:50	51.7	51.7	51.7	66	40.7	5	11	248	0.00	29.650 
19:55	51.6	51.6	51.6	66	40.6	3	9	248	0.00	29.650 
20:00	51.4	51.4	51.4	67	40.8	4	14	248	0.00	29.652 
20:05	51.3	51.3	51.3	67	40.7	4	12	270	0.00	29.652 
20:10	51.0	51.0	51.0	68	40.8	4	7	248	0.00	29.652 
20:15	50.8	50.8	50.8	69	41.0	3	6	248	0.00	29.652 
20:20	50.7	50.7	50.7	69	40.9	3	7	248	0.00	29.652 
20:25	50.5	50.5	50.5	69	40.7	3	9	248	0.00	29.652 
20:30	50.4	50.4	50.4	70	41.0	3	7	248	0.00	29.649 
20:35	50.1	50.1	50.1	70	40.7	3	7	248	0.00	29.649 
20:40	49.9	49.9	49.9	71	40.9	3	7	248	0.00	29.649 
20:45	49.9	48.8	49.9	71	40.9	4	10	270	0.00	29.648 
20:50	49.9	48.8	49.9	71	40.9	4	7	248	0.00	29.648 
20:55	49.8	48.6	49.8	71	40.8	4	11	248	0.00	29.648 
21:00	49.8	48.6	49.8	72	41.1	4	11	248	0.00	29.650 
21:05	49.8	48.6	49.8	72	41.1	4	7	248	0.00	29.650 
21:10	49.8	48.0	49.8	72	41.1	5	12	248	0.00	29.650 
21:15	49.6	49.6	49.6	72	40.9	3	7	270	0.00	29.645 
21:20	49.5	48.3	49.5	72	40.9	4	10	248	0.00	29.645 
21:25	49.5	48.3	49.5	72	40.9	4	12	248	0.00	29.645 
21:30	49.4	49.4	49.4	72	40.8	3	9	248	0.00	29.647 
21:35	49.1	49.1	49.1	73	40.8	3	10	248	0.00	29.647 
21:40	49.2	47.3	49.2	73	40.9	5	9	248	0.00	29.647 
21:45	49.2	47.3	49.2	72	40.6	5	11	248	0.00	29.642 
21:50	49.1	47.8	49.1	72	40.5	4	12	270	0.00	29.642 
21:55	49.1	47.8	49.1	72	40.5	4	11	270	0.00	29.642 
22:00	49.1	47.8	49.1	72	40.5	4	9	248	0.00	29.648 
22:05	48.9	48.9	48.9	72	40.3	3	8	248	0.00	29.648 
22:10	48.8	47.5	48.8	72	40.2	4	15	270	0.00	29.648 
22:15	48.8	47.5	48.8	72	40.2	4	9	248	0.00	29.643 
22:20	48.6	47.3	48.6	73	40.3	4	10	248	0.00	29.643 
22:25	48.5	48.5	48.5	73	40.2	3	6	248	0.00	29.643 
22:30	48.5	47.1	48.5	73	40.2	4	12	270	0.00	29.642 
22:35	48.3	48.3	48.3	73	40.1	3	7	248	0.00	29.642 
22:40	48.2	48.2	48.2	73	40.0	3	10	248	0.00	29.642 
22:45	48.0	48.0	48.0	73	39.8	3	7	248	0.00	29.640 
22:50	47.9	47.9	47.9	74	40.0	3	6	270	0.00	29.640 
22:55	47.9	46.4	47.9	73	39.7	4	9	248	0.00	29.640 
23:00	47.7	47.7	47.7	74	39.8	2	5	248	0.00	29.639 
23:05	47.4	47.4	47.4	74	39.5	3	6	248	0.00	29.639 
23:10	47.4	47.4	47.4	75	39.9	3	6	248	0.00	29.639 
23:15	47.1	47.1	47.1	75	39.6	3	7	248	0.00	29.638 
23:20	47.0	47.0	47.0	76	39.8	3	7	248	0.00	29.638 
23:25	47.0	47.0	47.0	76	39.8	3	7	248	0.00	29.638 
23:30	46.8	46.8	46.8	77	40.0	3	7	248	0.00	29.644 
23:35	46.8	45.2	46.8	77	40.0	4	10	248	0.00	29.644 
23:40	46.8	45.2	46.8	77	40.0	4	9	248	0.00	29.644 
23:45	46.7	46.7	46.7	77	39.9	3	12	248	0.00	29.636 
23:50	46.7	45.1	46.7	76	39.5	4	7	248	0.00	29.636 
23:55	46.7	45.1	46.7	76	39.5	4	10	248	0.00	29.636 

CoCoRaHS
IN-AL-39
A2 Web Hosting
Creative Commons License
GoDaddy
Look for:

loaded 2017-10-19 14:43:57 • last modified 2010-11-18 10:43:29
Privacy PolicyDisclaimer
• wx.awcolley.com is powered by PmWiki v.2002016 •
• all content (unless otherwise noted) © 2017 A W Colley